Shaftsbury, Vermont
Current Conditions -  °F | °C
As of 2:54 PM on Friday 24 Oct 2014 (Local Time) from KDDH Reporting Station
Haze Haze  
Wind Chill: 40°   Ceiling: 1800
Heat Index: 45°   Visibility: 3mi
Dew Point: 42°   Wind: 9mph
Humidity: 90%   Direction: 330°NNW
Pressure: 29.8"   Gusts: NA
Location:  43.01°N, 73.19°W
Report Text: KDDH 241854Z AUTO 33008KT 3SM BR FEW008 BKN018 OVC026 07/06 A2980 RMK AO2 SLP093 T00720056
Loading
Personal Weather Stations






























Interactive Weather Map
Tropical Storm Tracking
New forecast layout! Learn more

10-Day Weather Forecast

Advertisements
Track Severe Weather on mobile